sensor_id;sensor_type;location;lat;lon;timestamp;temperature;humidity
13850;DHT22;6995;52.618;13.488;2023-07-29T00:03:23;18.70;1.00
13850;DHT22;6995;52.618;13.488;2023-07-29T00:05:49;18.60;1.00
13850;DHT22;6995;52.618;13.488;2023-07-29T00:08:15;18.60;1.00
13850;DHT22;6995;52.618;13.488;2023-07-29T00:10:40;18.50;1.00
13850;DHT22;6995;52.618;13.488;2023-07-29T00:13:07;18.40;1.00
13850;DHT22;6995;52.618;13.488;2023-07-29T00:15:33;18.40;1.00
13850;DHT22;6995;52.618;13.488;2023-07-29T00:17:58;18.40;1.00
13850;DHT22;6995;52.618;13.488;2023-07-29T00:20:24;18.30;1.00
13850;DHT22;6995;52.618;13.488;2023-07-29T00:22:49;18.30;1.00
13850;DHT22;6995;52.618;13.488;2023-07-29T00:25:18;18.30;1.00
13850;DHT22;6995;52.618;13.488;2023-07-29T00:27:44;18.20;1.00
13850;DHT22;6995;52.618;13.488;2023-07-29T00:30:10;18.20;1.00
13850;DHT22;6995;52.618;13.488;2023-07-29T00:32:35;18.20;1.00
13850;DHT22;6995;52.618;13.488;2023-07-29T00:35:02;18.20;1.00
13850;DHT22;6995;52.618;13.488;2023-07-29T00:37:28;18.10;1.00
13850;DHT22;6995;52.618;13.488;2023-07-29T00:39:54;18.10;1.00
13850;DHT22;6995;52.618;13.488;2023-07-29T00:42:20;18.10;1.00
13850;DHT22;6995;52.618;13.488;2023-07-29T00:44:45;18.10;1.00
13850;DHT22;6995;52.618;13.488;2023-07-29T00:47:11;18.00;1.00
13850;DHT22;6995;52.618;13.488;2023-07-29T00:49:38;18.00;1.00
13850;DHT22;6995;52.618;13.488;2023-07-29T00:52:04;18.00;1.00
13850;DHT22;6995;52.618;13.488;2023-07-29T00:54:29;18.00;1.00
13850;DHT22;6995;52.618;13.488;2023-07-29T00:56:55;17.90;1.00
13850;DHT22;6995;52.618;13.488;2023-07-29T00:59:21;17.80;1.00
13850;DHT22;6995;52.618;13.488;2023-07-29T01:01:48;17.80;1.00
13850;DHT22;6995;52.618;13.488;2023-07-29T01:04:14;17.80;1.00
13850;DHT22;6995;52.618;13.488;2023-07-29T01:09:23;17.70;1.00
13850;DHT22;6995;52.618;13.488;2023-07-29T01:12:20;17.70;1.00
13850;DHT22;6995;52.618;13.488;2023-07-29T01:17:47;17.70;1.00
13850;DHT22;6995;52.618;13.488;2023-07-29T01:20:15;17.80;1.00
13850;DHT22;6995;52.618;13.488;2023-07-29T01:22:42;17.70;1.00
13850;DHT22;6995;52.618;13.488;2023-07-29T01:25:08;17.80;1.00
13850;DHT22;6995;52.618;13.488;2023-07-29T01:27:33;17.80;1.00
13850;DHT22;6995;52.618;13.488;2023-07-29T01:30:00;17.70;1.00
13850;DHT22;6995;52.618;13.488;2023-07-29T01:35:27;17.70;1.00
13850;DHT22;6995;52.618;13.488;2023-07-29T01:38:07;17.70;1.00
13850;DHT22;6995;52.618;13.488;2023-07-29T01:40:35;17.60;1.00
13850;DHT22;6995;52.618;13.488;2023-07-29T01:43:01;17.60;1.00
13850;DHT22;6995;52.618;13.488;2023-07-29T01:45:26;17.70;1.00
13850;DHT22;6995;52.618;13.488;2023-07-29T01:47:52;17.60;1.00
13850;DHT22;6995;52.618;13.488;2023-07-29T01:50:18;17.60;1.00
13850;DHT22;6995;52.618;13.488;2023-07-29T01:52:44;17.50;1.00
13850;DHT22;6995;52.618;13.488;2023-07-29T01:55:09;17.50;1.00
13850;DHT22;6995;52.618;13.488;2023-07-29T01:57:35;17.50;1.00
13850;DHT22;6995;52.618;13.488;2023-07-29T02:00:02;17.50;1.00
13850;DHT22;6995;52.618;13.488;2023-07-29T02:02:29;17.40;1.00
13850;DHT22;6995;52.618;13.488;2023-07-29T02:04:54;17.40;1.00
13850;DHT22;6995;52.618;13.488;2023-07-29T02:07:21;17.40;1.00
13850;DHT22;6995;52.618;13.488;2023-07-29T02:09:46;17.40;1.00
13850;DHT22;6995;52.618;13.488;2023-07-29T02:12:12;17.30;1.00
13850;DHT22;6995;52.618;13.488;2023-07-29T02:14:38;17.30;1.00
13850;DHT22;6995;52.618;13.488;2023-07-29T02:17:04;17.30;1.00
13850;DHT22;6995;52.618;13.488;2023-07-29T02:19:29;17.30;1.00
13850;DHT22;6995;52.618;13.488;2023-07-29T02:21:55;17.30;1.00
13850;DHT22;6995;52.618;13.488;2023-07-29T02:24:20;17.30;1.00
13850;DHT22;6995;52.618;13.488;2023-07-29T02:26:46;17.30;1.00
13850;DHT22;6995;52.618;13.488;2023-07-29T02:29:11;17.30;1.00
13850;DHT22;6995;52.618;13.488;2023-07-29T02:31:37;17.30;1.00
13850;DHT22;6995;52.618;13.488;2023-07-29T02:34:04;17.30;1.00
13850;DHT22;6995;52.618;13.488;2023-07-29T02:36:30;17.30;1.00
13850;DHT22;6995;52.618;13.488;2023-07-29T02:38:55;17.30;1.00
13850;DHT22;6995;52.618;13.488;2023-07-29T02:41:21;17.20;1.00
13850;DHT22;6995;52.618;13.488;2023-07-29T02:43:51;17.20;1.00
13850;DHT22;6995;52.618;13.488;2023-07-29T02:46:17;17.20;1.00
13850;DHT22;6995;52.618;13.488;2023-07-29T02:48:44;17.20;1.00
13850;DHT22;6995;52.618;13.488;2023-07-29T02:51:09;17.20;1.00
13850;DHT22;6995;52.618;13.488;2023-07-29T02:53:35;17.30;1.00
13850;DHT22;6995;52.618;13.488;2023-07-29T02:56:04;17.30;1.00
13850;DHT22;6995;52.618;13.488;2023-07-29T02:58:30;17.40;1.00
13850;DHT22;6995;52.618;13.488;2023-07-29T03:01:02;17.50;1.00
13850;DHT22;6995;52.618;13.488;2023-07-29T03:03:29;17.50;1.00
13850;DHT22;6995;52.618;13.488;2023-07-29T03:06:02;17.50;1.00
13850;DHT22;6995;52.618;13.488;2023-07-29T03:08:28;17.40;1.00
13850;DHT22;6995;52.618;13.488;2023-07-29T03:10:55;17.30;1.00
13850;DHT22;6995;52.618;13.488;2023-07-29T03:13:21;17.30;1.00
13850;DHT22;6995;52.618;13.488;2023-07-29T03:15:46;17.20;1.00
13850;DHT22;6995;52.618;13.488;2023-07-29T03:18:12;17.20;1.00
13850;DHT22;6995;52.618;13.488;2023-07-29T03:20:38;17.20;1.00
13850;DHT22;6995;52.618;13.488;2023-07-29T03:23:03;17.20;1.00
13850;DHT22;6995;52.618;13.488;2023-07-29T03:25:29;17.20;1.00
13850;DHT22;6995;52.618;13.488;2023-07-29T03:27:55;17.30;1.00
13850;DHT22;6995;52.618;13.488;2023-07-29T03:30:21;17.30;1.00
13850;DHT22;6995;52.618;13.488;2023-07-29T03:32:48;17.30;1.00
13850;DHT22;6995;52.618;13.488;2023-07-29T03:35:14;17.30;1.00
13850;DHT22;6995;52.618;13.488;2023-07-29T03:37:40;17.30;1.00
13850;DHT22;6995;52.618;13.488;2023-07-29T03:40:06;17.30;1.00
13850;DHT22;6995;52.618;13.488;2023-07-29T03:42:33;17.30;1.00
13850;DHT22;6995;52.618;13.488;2023-07-29T03:44:58;17.40;1.00
13850;DHT22;6995;52.618;13.488;2023-07-29T03:47:24;17.40;1.00
13850;DHT22;6995;52.618;13.488;2023-07-29T03:49:50;17.50;1.00
13850;DHT22;6995;52.618;13.488;2023-07-29T03:52:15;17.50;1.00
13850;DHT22;6995;52.618;13.488;2023-07-29T03:54:41;17.50;1.00
13850;DHT22;6995;52.618;13.488;2023-07-29T03:57:06;17.50;1.00
13850;DHT22;6995;52.618;13.488;2023-07-29T03:59:32;17.50;1.00
13850;DHT22;6995;52.618;13.488;2023-07-29T04:01:58;17.40;1.00
13850;DHT22;6995;52.618;13.488;2023-07-29T04:04:23;17.40;1.00
13850;DHT22;6995;52.618;13.488;2023-07-29T04:06:49;17.40;1.00
13850;DHT22;6995;52.618;13.488;2023-07-29T04:09:14;17.40;1.00
13850;DHT22;6995;52.618;13.488;2023-07-29T04:11:40;17.40;1.00
13850;DHT22;6995;52.618;13.488;2023-07-29T04:14:05;17.40;1.00
13850;DHT22;6995;52.618;13.488;2023-07-29T04:16:31;17.40;1.00
13850;DHT22;6995;52.618;13.488;2023-07-29T04:18:57;17.50;1.00
13850;DHT22;6995;52.618;13.488;2023-07-29T04:21:23;17.50;1.00
13850;DHT22;6995;52.618;13.488;2023-07-29T04:23:48;17.50;1.00
13850;DHT22;6995;52.618;13.488;2023-07-29T04:26:14;17.50;1.00
13850;DHT22;6995;52.618;13.488;2023-07-29T04:28:39;17.60;1.00
13850;DHT22;6995;52.618;13.488;2023-07-29T04:31:05;17.70;1.00
13850;DHT22;6995;52.618;13.488;2023-07-29T04:33:31;17.70;1.00
13850;DHT22;6995;52.618;13.488;2023-07-29T04:35:57;17.70;1.00
13850;DHT22;6995;52.618;13.488;2023-07-29T04:38:27;17.80;1.00
13850;DHT22;6995;52.618;13.488;2023-07-29T04:40:53;17.80;1.00
13850;DHT22;6995;52.618;13.488;2023-07-29T04:43:18;17.90;1.00
13850;DHT22;6995;52.618;13.488;2023-07-29T04:45:44;18.00;1.00
13850;DHT22;6995;52.618;13.488;2023-07-29T04:48:09;18.00;1.00
13850;DHT22;6995;52.618;13.488;2023-07-29T04:50:35;18.20;1.00
13850;DHT22;6995;52.618;13.488;2023-07-29T04:53:01;18.30;1.00
13850;DHT22;6995;52.618;13.488;2023-07-29T04:55:26;18.30;1.00
13850;DHT22;6995;52.618;13.488;2023-07-29T04:57:52;18.50;1.00
13850;DHT22;6995;52.618;13.488;2023-07-29T05:00:17;18.50;1.00
13850;DHT22;6995;52.618;13.488;2023-07-29T05:02:43;18.60;1.00
13850;DHT22;6995;52.618;13.488;2023-07-29T05:05:09;18.80;1.00
13850;DHT22;6995;52.618;13.488;2023-07-29T05:07:34;18.80;1.00
13850;DHT22;6995;52.618;13.488;2023-07-29T05:10:00;19.00;1.00
13850;DHT22;6995;52.618;13.488;2023-07-29T05:12:25;19.10;1.00
13850;DHT22;6995;52.618;13.488;2023-07-29T05:14:51;19.20;1.00
13850;DHT22;6995;52.618;13.488;2023-07-29T05:17:17;19.40;1.00
13850;DHT22;6995;52.618;13.488;2023-07-29T05:19:42;19.50;1.00
13850;DHT22;6995;52.618;13.488;2023-07-29T05:22:08;19.60;1.00
13850;DHT22;6995;52.618;13.488;2023-07-29T05:24:35;19.50;1.00
13850;DHT22;6995;52.618;13.488;2023-07-29T05:27:01;19.60;1.00
13850;DHT22;6995;52.618;13.488;2023-07-29T05:29:26;19.70;1.00
13850;DHT22;6995;52.618;13.488;2023-07-29T05:31:52;19.70;1.00
13850;DHT22;6995;52.618;13.488;2023-07-29T05:34:17;19.60;1.00
13850;DHT22;6995;52.618;13.488;2023-07-29T05:36:43;19.70;1.00
13850;DHT22;6995;52.618;13.488;2023-07-29T05:39:09;19.80;1.00
13850;DHT22;6995;52.618;13.488;2023-07-29T05:41:34;19.90;1.00
13850;DHT22;6995;52.618;13.488;2023-07-29T05:44:00;20.20;1.00
13850;DHT22;6995;52.618;13.488;2023-07-29T05:46:26;20.40;1.00
13850;DHT22;6995;52.618;13.488;2023-07-29T05:48:52;20.60;1.00
13850;DHT22;6995;52.618;13.488;2023-07-29T05:51:17;20.80;1.00
13850;DHT22;6995;52.618;13.488;2023-07-29T05:53:43;20.90;1.00
13850;DHT22;6995;52.618;13.488;2023-07-29T05:56:11;21.00;1.00
13850;DHT22;6995;52.618;13.488;2023-07-29T05:58:37;20.90;1.00
13850;DHT22;6995;52.618;13.488;2023-07-29T06:01:02;20.70;1.00
13850;DHT22;6995;52.618;13.488;2023-07-29T06:03:28;20.70;1.00
13850;DHT22;6995;52.618;13.488;2023-07-29T06:05:54;20.70;1.00
13850;DHT22;6995;52.618;13.488;2023-07-29T06:08:19;20.80;1.00
13850;DHT22;6995;52.618;13.488;2023-07-29T06:10:45;20.90;1.00
13850;DHT22;6995;52.618;13.488;2023-07-29T06:13:11;21.00;1.00
13850;DHT22;6995;52.618;13.488;2023-07-29T06:15:36;21.10;1.00
13850;DHT22;6995;52.618;13.488;2023-07-29T06:18:02;21.20;1.00
13850;DHT22;6995;52.618;13.488;2023-07-29T06:20:28;21.30;1.00
13850;DHT22;6995;52.618;13.488;2023-07-29T06:22:54;21.30;1.00
13850;DHT22;6995;52.618;13.488;2023-07-29T06:25:19;21.30;1.00
13850;DHT22;6995;52.618;13.488;2023-07-29T06:27:45;21.30;1.00
13850;DHT22;6995;52.618;13.488;2023-07-29T06:30:10;21.30;1.00
13850;DHT22;6995;52.618;13.488;2023-07-29T06:32:36;21.40;1.00
13850;DHT22;6995;52.618;13.488;2023-07-29T06:35:02;21.50;1.00
13850;DHT22;6995;52.618;13.488;2023-07-29T06:37:27;21.60;99.90
13850;DHT22;6995;52.618;13.488;2023-07-29T06:39:53;21.80;99.90
13850;DHT22;6995;52.618;13.488;2023-07-29T06:42:18;21.80;1.00
13850;DHT22;6995;52.618;13.488;2023-07-29T06:44:44;21.80;99.90
13850;DHT22;6995;52.618;13.488;2023-07-29T06:47:11;21.80;99.90
13850;DHT22;6995;52.618;13.488;2023-07-29T06:49:37;21.90;99.90
13850;DHT22;6995;52.618;13.488;2023-07-29T06:52:02;22.20;99.90
13850;DHT22;6995;52.618;13.488;2023-07-29T06:54:28;22.30;99.90
13850;DHT22;6995;52.618;13.488;2023-07-29T06:56:54;22.40;99.90
13850;DHT22;6995;52.618;13.488;2023-07-29T06:59:19;22.40;99.90
13850;DHT22;6995;52.618;13.488;2023-07-29T07:01:45;22.30;99.90
13850;DHT22;6995;52.618;13.488;2023-07-29T07:04:11;22.40;99.90
13850;DHT22;6995;52.618;13.488;2023-07-29T07:06:37;22.70;99.90
13850;DHT22;6995;52.618;13.488;2023-07-29T07:09:02;22.80;99.90
13850;DHT22;6995;52.618;13.488;2023-07-29T07:11:28;22.90;99.90
13850;DHT22;6995;52.618;13.488;2023-07-29T07:13:54;23.00;99.90
13850;DHT22;6995;52.618;13.488;2023-07-29T07:16:19;23.20;99.90
13850;DHT22;6995;52.618;13.488;2023-07-29T07:18:45;23.40;99.90
13850;DHT22;6995;52.618;13.488;2023-07-29T07:21:11;23.10;99.90
13850;DHT22;6995;52.618;13.488;2023-07-29T07:23:36;22.60;99.90
13850;DHT22;6995;52.618;13.488;2023-07-29T07:26:02;22.80;99.90
13850;DHT22;6995;52.618;13.488;2023-07-29T07:28:28;23.00;99.90
13850;DHT22;6995;52.618;13.488;2023-07-29T07:30:53;23.50;99.90
13850;DHT22;6995;52.618;13.488;2023-07-29T07:33:21;23.70;99.90
13850;DHT22;6995;52.618;13.488;2023-07-29T07:35:47;23.70;99.90
13850;DHT22;6995;52.618;13.488;2023-07-29T07:38:12;23.60;99.90
13850;DHT22;6995;52.618;13.488;2023-07-29T07:40:38;23.60;99.90
13850;DHT22;6995;52.618;13.488;2023-07-29T07:43:03;23.60;99.90
13850;DHT22;6995;52.618;13.488;2023-07-29T07:45:29;23.60;99.90
13850;DHT22;6995;52.618;13.488;2023-07-29T07:47:57;23.60;99.90
13850;DHT22;6995;52.618;13.488;2023-07-29T07:50:22;23.40;99.90
13850;DHT22;6995;52.618;13.488;2023-07-29T07:52:49;23.00;99.90
13850;DHT22;6995;52.618;13.488;2023-07-29T07:55:15;23.20;99.90
13850;DHT22;6995;52.618;13.488;2023-07-29T07:57:40;23.50;99.90
13850;DHT22;6995;52.618;13.488;2023-07-29T08:00:06;23.70;99.90
13850;DHT22;6995;52.618;13.488;2023-07-29T08:02:32;23.50;99.90
13850;DHT22;6995;52.618;13.488;2023-07-29T08:04:58;23.70;99.90
13850;DHT22;6995;52.618;13.488;2023-07-29T08:07:23;23.60;99.90
13850;DHT22;6995;52.618;13.488;2023-07-29T08:09:49;23.80;99.90
13850;DHT22;6995;52.618;13.488;2023-07-29T08:12:15;23.80;99.90
13850;DHT22;6995;52.618;13.488;2023-07-29T08:14:40;24.00;99.90
13850;DHT22;6995;52.618;13.488;2023-07-29T08:17:06;24.10;99.90
13850;DHT22;6995;52.618;13.488;2023-07-29T08:19:32;24.20;99.90
13850;DHT22;6995;52.618;13.488;2023-07-29T08:21:57;24.30;99.90
13850;DHT22;6995;52.618;13.488;2023-07-29T08:24:23;24.20;99.90
13850;DHT22;6995;52.618;13.488;2023-07-29T08:26:49;23.90;99.90
13850;DHT22;6995;52.618;13.488;2023-07-29T08:29:15;23.80;99.90
13850;DHT22;6995;52.618;13.488;2023-07-29T08:31:40;23.80;99.90
13850;DHT22;6995;52.618;13.488;2023-07-29T08:34:06;24.10;99.90
13850;DHT22;6995;52.618;13.488;2023-07-29T08:36:32;24.40;99.90
13850;DHT22;6995;52.618;13.488;2023-07-29T08:38:57;24.80;99.90
13850;DHT22;6995;52.618;13.488;2023-07-29T08:41:31;25.10;99.90
13850;DHT22;6995;52.618;13.488;2023-07-29T08:44:23;24.90;99.90
13850;DHT22;6995;52.618;13.488;2023-07-29T08:46:52;24.40;99.90
13850;DHT22;6995;52.618;13.488;2023-07-29T08:49:19;24.50;99.90
13850;DHT22;6995;52.618;13.488;2023-07-29T08:51:46;24.70;99.90
13850;DHT22;6995;52.618;13.488;2023-07-29T08:54:13;24.80;99.90
13850;DHT22;6995;52.618;13.488;2023-07-29T08:56:41;25.10;99.90
13850;DHT22;6995;52.618;13.488;2023-07-29T08:59:07;25.40;99.90
13850;DHT22;6995;52.618;13.488;2023-07-29T09:01:33;25.60;99.90
13850;DHT22;6995;52.618;13.488;2023-07-29T09:03:59;25.50;99.90
13850;DHT22;6995;52.618;13.488;2023-07-29T09:06:25;25.70;99.90
13850;DHT22;6995;52.618;13.488;2023-07-29T09:08:53;25.40;99.90
13850;DHT22;6995;52.618;13.488;2023-07-29T09:11:20;25.10;99.90
13850;DHT22;6995;52.618;13.488;2023-07-29T09:13:46;24.80;99.90
13850;DHT22;6995;52.618;13.488;2023-07-29T09:16:12;24.50;99.90
13850;DHT22;6995;52.618;13.488;2023-07-29T09:18:38;24.70;99.90
13850;DHT22;6995;52.618;13.488;2023-07-29T09:21:04;25.00;99.90
13850;DHT22;6995;52.618;13.488;2023-07-29T09:23:42;25.20;99.90
13850;DHT22;6995;52.618;13.488;2023-07-29T09:26:09;25.40;99.90
13850;DHT22;6995;52.618;13.488;2023-07-29T09:28:36;25.70;99.90
13850;DHT22;6995;52.618;13.488;2023-07-29T09:31:02;25.70;99.90
13850;DHT22;6995;52.618;13.488;2023-07-29T09:33:37;26.20;99.90
13850;DHT22;6995;52.618;13.488;2023-07-29T09:36:08;26.50;77.90
13850;DHT22;6995;52.618;13.488;2023-07-29T09:38:35;26.30;70.20
13850;DHT22;6995;52.618;13.488;2023-07-29T09:41:01;26.10;76.80
13850;DHT22;6995;52.618;13.488;2023-07-29T09:43:32;25.70;75.90
13850;DHT22;6995;52.618;13.488;2023-07-29T09:46:05;25.90;79.40
13850;DHT22;6995;52.618;13.488;2023-07-29T09:48:37;26.40;64.80
13850;DHT22;6995;52.618;13.488;2023-07-29T09:51:12;26.30;67.70
13850;DHT22;6995;52.618;13.488;2023-07-29T09:53:46;26.30;62.30
13850;DHT22;6995;52.618;13.488;2023-07-29T09:56:12;26.40;99.90
13850;DHT22;6995;52.618;13.488;2023-07-29T09:58:38;26.50;56.10
13850;DHT22;6995;52.618;13.488;2023-07-29T10:01:08;26.20;53.20
13850;DHT22;6995;52.618;13.488;2023-07-29T10:03:34;26.50;55.70
13850;DHT22;6995;52.618;13.488;2023-07-29T10:06:05;26.60;86.80
13850;DHT22;6995;52.618;13.488;2023-07-29T10:08:31;26.60;56.90
13850;DHT22;6995;52.618;13.488;2023-07-29T10:11:01;26.60;48.50
13850;DHT22;6995;52.618;13.488;2023-07-29T10:13:27;26.60;48.50
13850;DHT22;6995;52.618;13.488;2023-07-29T10:15:56;26.60;48.20
13850;DHT22;6995;52.618;13.488;2023-07-29T10:18:23;26.80;51.40
13850;DHT22;6995;52.618;13.488;2023-07-29T10:20:51;26.90;48.60
13850;DHT22;6995;52.618;13.488;2023-07-29T10:23:18;27.00;40.50
13850;DHT22;6995;52.618;13.488;2023-07-29T10:25:50;26.70;48.70
13850;DHT22;6995;52.618;13.488;2023-07-29T10:28:20;26.80;37.80
13850;DHT22;6995;52.618;13.488;2023-07-29T10:30:46;26.90;39.90
13850;DHT22;6995;52.618;13.488;2023-07-29T10:33:12;26.60;34.20
13850;DHT22;6995;52.618;13.488;2023-07-29T10:35:39;26.40;36.60
13850;DHT22;6995;52.618;13.488;2023-07-29T10:38:06;26.00;45.50
13850;DHT22;6995;52.618;13.488;2023-07-29T10:40:46;25.60;58.50
13850;DHT22;6995;52.618;13.488;2023-07-29T10:43:18;25.20;69.20
13850;DHT22;6995;52.618;13.488;2023-07-29T10:45:44;25.10;73.20
13850;DHT22;6995;52.618;13.488;2023-07-29T10:48:39;25.10;83.40
13850;DHT22;6995;52.618;13.488;2023-07-29T10:54:11;25.30;82.50
13850;DHT22;6995;52.618;13.488;2023-07-29T10:56:46;25.60;92.50
13850;DHT22;6995;52.618;13.488;2023-07-29T11:01:42;25.80;72.70
13850;DHT22;6995;52.618;13.488;2023-07-29T11:12:51;24.90;92.20
13850;DHT22;6995;52.618;13.488;2023-07-29T11:15:25;24.60;99.90
13850;DHT22;6995;52.618;13.488;2023-07-29T11:17:59;24.40;99.90
13850;DHT22;6995;52.618;13.488;2023-07-29T11:20:28;24.10;99.90
13850;DHT22;6995;52.618;13.488;2023-07-29T11:22:56;23.30;99.90
13850;DHT22;6995;52.618;13.488;2023-07-29T11:25:23;22.00;99.90
13850;DHT22;6995;52.618;13.488;2023-07-29T11:27:51;21.60;99.90
13850;DHT22;6995;52.618;13.488;2023-07-29T11:30:16;21.20;99.90
13850;DHT22;6995;52.618;13.488;2023-07-29T11:32:44;20.80;1.00
13850;DHT22;6995;52.618;13.488;2023-07-29T11:35:15;20.10;1.00
13850;DHT22;6995;52.618;13.488;2023-07-29T11:37:44;19.70;1.00
13850;DHT22;6995;52.618;13.488;2023-07-29T11:40:22;19.40;1.00
13850;DHT22;6995;52.618;13.488;2023-07-29T11:42:49;19.30;1.00
13850;DHT22;6995;52.618;13.488;2023-07-29T11:45:19;19.30;1.00
13850;DHT22;6995;52.618;13.488;2023-07-29T11:47:46;19.30;1.00
13850;DHT22;6995;52.618;13.488;2023-07-29T11:50:13;19.30;1.00
13850;DHT22;6995;52.618;13.488;2023-07-29T11:52:43;19.40;1.00
13850;DHT22;6995;52.618;13.488;2023-07-29T11:55:09;19.50;1.00
13850;DHT22;6995;52.618;13.488;2023-07-29T11:57:37;19.60;1.00
13850;DHT22;6995;52.618;13.488;2023-07-29T12:00:07;19.80;1.00
13850;DHT22;6995;52.618;13.488;2023-07-29T12:02:38;20.00;1.00
13850;DHT22;6995;52.618;13.488;2023-07-29T12:05:05;20.30;1.00
13850;DHT22;6995;52.618;13.488;2023-07-29T12:07:31;20.50;1.00
13850;DHT22;6995;52.618;13.488;2023-07-29T12:09:59;20.60;1.00
13850;DHT22;6995;52.618;13.488;2023-07-29T12:12:24;20.80;1.00
13850;DHT22;6995;52.618;13.488;2023-07-29T12:14:50;20.90;1.00
13850;DHT22;6995;52.618;13.488;2023-07-29T12:17:16;21.00;1.00
13850;DHT22;6995;52.618;13.488;2023-07-29T12:19:42;21.00;1.00
13850;DHT22;6995;52.618;13.488;2023-07-29T12:22:09;21.20;1.00
13850;DHT22;6995;52.618;13.488;2023-07-29T12:24:39;21.30;1.00
13850;DHT22;6995;52.618;13.488;2023-07-29T12:27:09;21.40;1.00
13850;DHT22;6995;52.618;13.488;2023-07-29T12:29:40;21.50;1.00
13850;DHT22;6995;52.618;13.488;2023-07-29T12:32:06;21.40;1.00
13850;DHT22;6995;52.618;13.488;2023-07-29T12:34:32;21.40;1.00
13850;DHT22;6995;52.618;13.488;2023-07-29T12:36:58;21.50;1.00
13850;DHT22;6995;52.618;13.488;2023-07-29T12:39:30;21.50;1.00
13850;DHT22;6995;52.618;13.488;2023-07-29T12:41:58;21.50;1.00
13850;DHT22;6995;52.618;13.488;2023-07-29T12:44:24;21.60;1.00
13850;DHT22;6995;52.618;13.488;2023-07-29T12:46:50;21.70;1.00
13850;DHT22;6995;52.618;13.488;2023-07-29T12:49:16;21.90;1.00
13850;DHT22;6995;52.618;13.488;2023-07-29T12:51:42;21.90;1.00
13850;DHT22;6995;52.618;13.488;2023-07-29T12:54:11;22.30;1.00
13850;DHT22;6995;52.618;13.488;2023-07-29T12:56:36;22.50;1.00
13850;DHT22;6995;52.618;13.488;2023-07-29T12:59:02;22.90;1.00
13850;DHT22;6995;52.618;13.488;2023-07-29T13:01:29;23.50;1.00
13850;DHT22;6995;52.618;13.488;2023-07-29T13:03:55;24.10;1.00
13850;DHT22;6995;52.618;13.488;2023-07-29T13:06:21;24.60;99.90
13850;DHT22;6995;52.618;13.488;2023-07-29T13:08:47;24.90;99.90
13850;DHT22;6995;52.618;13.488;2023-07-29T13:11:14;25.10;99.90
13850;DHT22;6995;52.618;13.488;2023-07-29T13:13:39;25.30;99.90
13850;DHT22;6995;52.618;13.488;2023-07-29T13:16:05;25.90;99.90
13850;DHT22;6995;52.618;13.488;2023-07-29T13:18:32;26.00;99.90
13850;DHT22;6995;52.618;13.488;2023-07-29T13:20:58;26.30;99.90
13850;DHT22;6995;52.618;13.488;2023-07-29T13:23:24;26.70;99.90
13850;DHT22;6995;52.618;13.488;2023-07-29T13:25:49;26.10;99.90
13850;DHT22;6995;52.618;13.488;2023-07-29T13:28:15;25.50;99.90
13850;DHT22;6995;52.618;13.488;2023-07-29T13:30:42;24.90;99.90
13850;DHT22;6995;52.618;13.488;2023-07-29T13:33:08;24.90;99.90
13850;DHT22;6995;52.618;13.488;2023-07-29T13:35:33;24.80;99.90
13850;DHT22;6995;52.618;13.488;2023-07-29T13:37:59;24.70;99.90
13850;DHT22;6995;52.618;13.488;2023-07-29T13:40:25;24.50;99.90
13850;DHT22;6995;52.618;13.488;2023-07-29T13:42:51;24.70;99.90
13850;DHT22;6995;52.618;13.488;2023-07-29T13:45:17;25.00;99.90
13850;DHT22;6995;52.618;13.488;2023-07-29T13:47:43;24.90;99.90
13850;DHT22;6995;52.618;13.488;2023-07-29T13:50:09;25.50;99.90
13850;DHT22;6995;52.618;13.488;2023-07-29T13:52:36;26.40;99.90
13850;DHT22;6995;52.618;13.488;2023-07-29T13:55:02;27.40;99.90
13850;DHT22;6995;52.618;13.488;2023-07-29T13:57:28;27.80;89.60
13850;DHT22;6995;52.618;13.488;2023-07-29T13:59:54;27.50;87.50
13850;DHT22;6995;52.618;13.488;2023-07-29T14:02:19;26.50;99.90
13850;DHT22;6995;52.618;13.488;2023-07-29T14:04:45;25.80;99.90
13850;DHT22;6995;52.618;13.488;2023-07-29T14:07:11;25.70;99.90
13850;DHT22;6995;52.618;13.488;2023-07-29T14:09:37;25.60;99.90
13850;DHT22;6995;52.618;13.488;2023-07-29T14:12:04;25.70;99.90
13850;DHT22;6995;52.618;13.488;2023-07-29T14:14:30;26.20;94.10
13850;DHT22;6995;52.618;13.488;2023-07-29T14:16:56;27.60;57.40
13850;DHT22;6995;52.618;13.488;2023-07-29T14:19:21;27.80;45.20
13850;DHT22;6995;52.618;13.488;2023-07-29T14:21:48;27.20;56.30
13850;DHT22;6995;52.618;13.488;2023-07-29T14:24:13;27.20;38.90
13850;DHT22;6995;52.618;13.488;2023-07-29T14:26:40;26.90;62.20
13850;DHT22;6995;52.618;13.488;2023-07-29T14:29:05;27.40;44.40
13850;DHT22;6995;52.618;13.488;2023-07-29T14:31:31;26.60;33.40
13850;DHT22;6995;52.618;13.488;2023-07-29T14:33:57;25.70;52.50
13850;DHT22;6995;52.618;13.488;2023-07-29T14:36:24;25.40;55.70
13850;DHT22;6995;52.618;13.488;2023-07-29T14:38:50;25.60;66.60
13850;DHT22;6995;52.618;13.488;2023-07-29T14:41:15;26.30;58.10
13850;DHT22;6995;52.618;13.488;2023-07-29T14:43:41;27.30;35.30
13850;DHT22;6995;52.618;13.488;2023-07-29T14:46:07;27.90;16.80
13850;DHT22;6995;52.618;13.488;2023-07-29T14:48:32;28.00;4.60
13850;DHT22;6995;52.618;13.488;2023-07-29T14:50:58;27.60;8.80
13850;DHT22;6995;52.618;13.488;2023-07-29T14:53:23;27.00;13.30
13850;DHT22;6995;52.618;13.488;2023-07-29T14:55:50;26.30;24.10
13850;DHT22;6995;52.618;13.488;2023-07-29T14:58:16;25.50;54.70
13850;DHT22;6995;52.618;13.488;2023-07-29T15:00:42;25.20;83.50
13850;DHT22;6995;52.618;13.488;2023-07-29T15:03:08;24.90;98.60
13850;DHT22;6995;52.618;13.488;2023-07-29T15:05:33;24.70;99.90
13850;DHT22;6995;52.618;13.488;2023-07-29T15:07:59;24.70;99.90
13850;DHT22;6995;52.618;13.488;2023-07-29T15:10:24;25.20;99.90
13850;DHT22;6995;52.618;13.488;2023-07-29T15:12:51;25.80;81.60
13850;DHT22;6995;52.618;13.488;2023-07-29T15:15:17;25.80;65.20
13850;DHT22;6995;52.618;13.488;2023-07-29T15:17:42;25.50;75.50
13850;DHT22;6995;52.618;13.488;2023-07-29T15:20:08;25.10;84.80
13850;DHT22;6995;52.618;13.488;2023-07-29T15:22:34;24.80;99.90
13850;DHT22;6995;52.618;13.488;2023-07-29T15:25:00;24.70;99.90
13850;DHT22;6995;52.618;13.488;2023-07-29T15:27:26;24.60;99.90
13850;DHT22;6995;52.618;13.488;2023-07-29T15:29:55;24.40;99.90
13850;DHT22;6995;52.618;13.488;2023-07-29T15:32:22;24.30;99.90
13850;DHT22;6995;52.618;13.488;2023-07-29T15:34:48;23.90;99.90
13850;DHT22;6995;52.618;13.488;2023-07-29T15:37:14;23.80;99.90
13850;DHT22;6995;52.618;13.488;2023-07-29T15:39:40;23.60;99.90
13850;DHT22;6995;52.618;13.488;2023-07-29T15:42:06;23.50;99.90
13850;DHT22;6995;52.618;13.488;2023-07-29T15:44:31;23.30;99.90
13850;DHT22;6995;52.618;13.488;2023-07-29T15:46:57;23.20;99.90
13850;DHT22;6995;52.618;13.488;2023-07-29T15:49:23;23.00;99.90
13850;DHT22;6995;52.618;13.488;2023-07-29T15:51:49;22.80;99.90
13850;DHT22;6995;52.618;13.488;2023-07-29T15:54:15;22.60;99.90
13850;DHT22;6995;52.618;13.488;2023-07-29T15:56:40;22.10;99.90
13850;DHT22;6995;52.618;13.488;2023-07-29T15:59:07;21.50;99.90
13850;DHT22;6995;52.618;13.488;2023-07-29T16:01:33;21.10;99.90